Time;durP1;ratioP1;P1;durP2;ratioP2;P2;SDS_P1;SDS_P2;PMS_P1;PMS_P2;Temp;Humidity;BMP_temperature;BMP_pressure;BME280_temperature;BME280_humidity;BME280_pressure;Samples;Min_cycle;Max_cycle;Signal;HPM_P1;HPM_P2
2022/10/27 00:00:19;;;;;;;;;;;;;;;1.82;68.45;100131.00;5107829;28;20466;-64
2022/10/27 00:02:45;;;;;;;;;;;;;;;1.84;68.21;100125.41;5107524;28;20307;-65
2022/10/27 00:05:11;;;;;;;;;;;;;;;1.87;68.26;100124.16;5106459;28;19931;-64
2022/10/27 00:07:37;;;;;;;;;;;;;;;1.81;68.23;100126.66;5107791;28;20350;-64
2022/10/27 00:10:05;;;;;;;;;;;;;;;1.86;68.37;100122.50;5106170;28;19932;-65
2022/10/27 00:12:31;;;;;;;;;;;;;;;1.86;68.23;100122.50;5106759;28;19951;-66
2022/10/27 00:14:56;;;;;;;;;;;;;;;1.88;68.03;100121.25;5107564;28;19928;-66
2022/10/27 00:17:22;;;;;;;;;;;;;;;1.87;67.67;100118.75;5104683;28;19928;-66
2022/10/27 00:19:48;;;;;;;;;;;;;;;1.88;67.62;100110.47;5105600;28;19935;-66
2022/10/27 00:22:13;;;;;;;;;;;;;;;1.89;67.26;100119.41;5087818;28;19927;-66
2022/10/27 00:24:40;;;;;;;;;;;;;;;1.87;67.36;100126.84;5103226;28;19974;-66
2022/10/27 00:27:07;;;;;;;;;;;;;;;1.84;67.39;100117.31;5105808;28;19969;-66
2022/10/27 00:29:34;;;;;;;;;;;;;;;1.82;67.36;100127.50;5109302;28;19927;-66
2022/10/27 00:31:59;;;;;;;;;;;;;;;1.80;67.66;100114.22;5105730;28;19977;-66
2022/10/27 00:34:25;;;;;;;;;;;;;;;1.81;67.58;100115.06;5077662;28;19935;-66
2022/10/27 00:36:51;;;;;;;;;;;;;;;1.81;67.32;100112.34;5087364;28;20296;-66
2022/10/27 00:39:17;;;;;;;;;;;;;;;1.81;67.40;100115.88;5087821;28;19971;-65
2022/10/27 00:41:43;;;;;;;;;;;;;;;1.84;67.49;100112.75;5069341;28;19928;-66
2022/10/27 00:44:31;;;;;;;;;;;;;;;1.85;67.47;100113.59;5086352;28;20044;-66
2022/10/27 00:46:58;;;;;;;;;;;;;;;1.86;67.19;100114.41;5085930;28;19960;-66
2022/10/27 00:49:26;;;;;;;;;;;;;;;1.91;67.27;100112.75;5085497;28;20352;-67
2022/10/27 00:51:53;;;;;;;;;;;;;;;1.90;67.09;100107.56;5066854;28;20407;-65
2022/10/27 00:54:20;;;;;;;;;;;;;;;1.84;67.35;100107.34;5087680;28;20391;-65
2022/10/27 00:56:47;;;;;;;;;;;;;;;1.82;67.37;100106.75;5104122;28;19949;-65
2022/10/27 00:59:13;;;;;;;;;;;;;;;1.81;67.60;100106.97;5105373;28;19928;-66
2022/10/27 01:01:41;;;;;;;;;;;;;;;1.82;67.70;100114.00;5103596;28;19934;-66
2022/10/27 01:04:07;;;;;;;;;;;;;;;1.84;67.46;100114.63;5107889;28;20018;-65
2022/10/27 01:06:34;;;;;;;;;;;;;;;1.86;67.58;100114.41;5106675;28;19935;-65
2022/10/27 01:08:59;;;;;;;;;;;;;;;1.88;67.39;100109.66;5105106;28;20030;-65
2022/10/27 01:11:25;;;;;;;;;;;;;;;1.92;67.71;100105.50;5106108;28;20042;-66
2022/10/27 01:13:51;;;;;;;;;;;;;;;2.01;67.57;100114.19;5105492;28;19934;-66
2022/10/27 01:16:21;;;;;;;;;;;;;;;2.06;67.41;100108.97;5103298;28;19932;-68
2022/10/27 01:18:54;;;;;;;;;;;;;;;2.05;67.33;100112.72;5103543;28;19935;-66
2022/10/27 01:21:37;;;;;;;;;;;;;;;2.00;67.11;100107.94;5104583;28;19928;-65
2022/10/27 01:24:21;;;;;;;;;;;;;;;1.91;67.36;100112.75;5105291;28;20322;-65
2022/10/27 01:26:49;;;;;;;;;;;;;;;1.91;67.55;100099.25;5106217;28;19928;-65
2022/10/27 01:29:29;;;;;;;;;;;;;;;1.94;67.52;100100.72;5104891;28;20104;-67
2022/10/27 01:32:00;;;;;;;;;;;;;;;1.99;67.48;100100.91;5106536;28;19928;-65
2022/10/27 01:34:28;;;;;;;;;;;;;;;2.00;67.16;100094.47;5105672;28;20014;-65
2022/10/27 01:36:58;;;;;;;;;;;;;;;1.98;67.10;100096.53;5106661;28;19935;-65
2022/10/27 01:39:25;;;;;;;;;;;;;;;1.95;67.44;100099.66;5073571;28;20026;-65
2022/10/27 01:41:55;;;;;;;;;;;;;;;1.95;67.36;100091.59;5085145;28;20345;-65
2022/10/27 01:44:22;;;;;;;;;;;;;;;1.89;67.72;100087.84;5085807;28;19932;-66
2022/10/27 01:46:48;;;;;;;;;;;;;;;1.87;67.77;100089.94;5069118;28;21005;-66
2022/10/27 01:49:15;;;;;;;;;;;;;;;1.87;67.59;100089.94;5097243;28;20395;-64
2022/10/27 01:51:41;;;;;;;;;;;;;;;1.80;67.73;100081.84;5107102;28;19967;-66
2022/10/27 01:54:07;;;;;;;;;;;;;;;1.75;68.11;100087.06;5105956;28;19959;-66
2022/10/27 01:56:41;;;;;;;;;;;;;;;1.77;68.23;100086.81;5108184;28;20031;-65
2022/10/27 01:59:12;;;;;;;;;;;;;;;1.76;68.07;100093.25;5067551;28;20074;-66
2022/10/27 02:01:46;;;;;;;;;;;;;;;1.77;68.23;100084.97;5088952;28;19936;-66
2022/10/27 02:04:15;;;;;;;;;;;;;;;1.80;68.13;100087.25;5107530;28;20399;-64
2022/10/27 02:06:47;;;;;;;;;;;;;;;1.86;67.95;100087.44;5107133;28;19988;-64
2022/10/27 02:09:16;;;;;;;;;;;;;;;1.90;67.83;100084.13;5104112;28;20447;-64
2022/10/27 02:11:42;;;;;;;;;;;;;;;1.92;67.96;100083.91;5102851;28;20497;-65
2022/10/27 02:14:09;;;;;;;;;;;;;;;1.93;67.99;100088.28;5104242;28;19928;-65
2022/10/27 02:16:39;;;;;;;;;;;;;;;1.94;67.68;100090.75;5106657;28;19935;-65
2022/10/27 02:19:09;;;;;;;;;;;;;;;1.93;67.86;100091.78;5105086;28;19935;-67
2022/10/27 02:21:36;;;;;;;;;;;;;;;1.94;67.77;100084.53;5094939;28;19981;-64
2022/10/27 02:24:03;;;;;;;;;;;;;;;1.93;67.79;100089.09;5067358;28;19928;-65
2022/10/27 02:26:34;;;;;;;;;;;;;;;1.92;67.60;100086.63;5085527;28;19985;-65
2022/10/27 02:29:12;;;;;;;;;;;;;;;1.91;67.61;100091.16;5086996;28;19928;-67
2022/10/27 02:31:40;;;;;;;;;;;;;;;1.91;67.89;100084.97;5094536;28;19928;-67
2022/10/27 02:34:06;;;;;;;;;;;;;;;1.91;67.71;100090.34;5104207;28;19941;-66
2022/10/27 02:36:32;;;;;;;;;;;;;;;1.91;67.76;100087.66;5108880;28;19955;-66
2022/10/27 02:38:58;;;;;;;;;;;;;;;1.89;68.02;100079.75;5106050;28;19974;-66
2022/10/27 02:41:25;;;;;;;;;;;;;;;1.93;68.07;100086.38;5106689;28;19981;-67
2022/10/27 02:43:51;;;;;;;;;;;;;;;1.95;68.01;100086.19;5085199;28;19951;-66
2022/10/27 02:46:16;;;;;;;;;;;;;;;1.96;67.76;100085.16;5085954;28;20407;-66
2022/10/27 02:48:42;;;;;;;;;;;;;;;1.98;67.90;100085.75;5082898;28;20399;-66
2022/10/27 02:51:08;;;;;;;;;;;;;;;1.97;67.82;100089.50;5084973;28;19932;-65
2022/10/27 02:53:33;;;;;;;;;;;;;;;1.97;67.82;100082.25;5084806;28;19928;-65
2022/10/27 02:55:59;;;;;;;;;;;;;;;1.95;68.05;100083.50;5087088;28;20346;-66
2022/10/27 02:58:26;;;;;;;;;;;;;;;1.95;67.65;100088.88;5086874;28;19967;-64
2022/10/27 03:00:52;;;;;;;;;;;;;;;1.94;68.06;100088.03;5083902;28;20363;-64
2022/10/27 03:03:18;;;;;;;;;;;;;;;1.99;67.67;100087.41;5083756;28;20034;-65
2022/10/27 03:05:43;;;;;;;;;;;;;;;1.97;67.96;100092.19;5083494;28;20047;-65
2022/10/27 03:08:09;;;;;;;;;;;;;;;2.02;67.79;100092.38;5083921;28;19932;-66
2022/10/27 03:10:35;;;;;;;;;;;;;;;2.04;67.88;100079.53;5083572;28;19973;-65
2022/10/27 03:13:01;;;;;;;;;;;;;;;2.10;67.76;100081.38;5083972;28;19928;-68
2022/10/27 03:15:28;;;;;;;;;;;;;;;2.13;67.67;100080.94;5085743;28;20026;-65
2022/10/27 03:17:53;;;;;;;;;;;;;;;2.17;67.64;100085.91;5086471;28;19928;-64
2022/10/27 03:20:19;;;;;;;;;;;;;;;2.18;67.39;100079.47;5084593;28;19985;-64
2022/10/27 03:22:45;;;;;;;;;;;;;;;2.12;67.48;100073.09;5082257;28;19932;-64
2022/10/27 03:25:13;;;;;;;;;;;;;;;2.13;67.65;100069.34;5089490;28;20382;-64
2022/10/27 03:27:39;;;;;;;;;;;;;;;2.16;67.64;100068.91;5104137;28;20508;-65
2022/10/27 03:30:06;;;;;;;;;;;;;;;2.16;67.74;100068.06;5108146;28;20232;-65
2022/10/27 03:32:33;;;;;;;;;;;;;;;2.18;67.70;100066.81;5104696;28;19928;-66
2022/10/27 03:34:59;;;;;;;;;;;;;;;2.24;67.56;100067.84;5104498;28;19927;-66
2022/10/27 03:37:24;;;;;;;;;;;;;;;2.29;67.40;100072.63;5101909;28;19934;-65
2022/10/27 03:39:50;;;;;;;;;;;;;;;2.29;67.48;100073.41;5105222;28;20026;-66
2022/10/27 03:42:16;;;;;;;;;;;;;;;2.30;67.55;100077.78;5103424;28;20335;-65
2022/10/27 03:44:41;;;;;;;;;;;;;;;2.33;67.68;100080.03;5090385;28;20276;-65
2022/10/27 03:47:08;;;;;;;;;;;;;;;2.37;67.49;100084.00;5107617;28;19972;-66
2022/10/27 03:49:35;;;;;;;;;;;;;;;2.33;67.25;100081.94;5107939;28;19934;-66
2022/10/27 03:52:01;;;;;;;;;;;;;;;2.31;67.35;100084.00;5107938;28;19931;-66
2022/10/27 03:54:28;;;;;;;;;;;;;;;2.30;67.40;100085.88;5109056;28;20348;-66
2022/10/27 03:56:54;;;;;;;;;;;;;;;2.30;67.41;100085.88;5103109;28;19940;-65
2022/10/27 03:59:19;;;;;;;;;;;;;;;2.30;67.29;100088.56;5085735;28;20067;-65
2022/10/27 04:01:45;;;;;;;;;;;;;;;2.29;67.35;100095.00;5101426;28;19975;-66
2022/10/27 04:04:11;;;;;;;;;;;;;;;2.30;67.42;100093.16;5104871;28;20367;-64
2022/10/27 04:06:38;;;;;;;;;;;;;;;2.31;67.43;100098.31;5104136;28;19928;-64
2022/10/27 04:09:04;;;;;;;;;;;;;;;2.35;67.55;100090.63;5108061;28;20044;-65
2022/10/27 04:11:30;;;;;;;;;;;;;;;2.43;67.50;100100.38;5107594;28;19934;-65
2022/10/27 04:13:56;;;;;;;;;;;;;;;2.48;67.22;100100.53;5110110;28;19927;-65
2022/10/27 04:16:22;;;;;;;;;;;;;;;2.54;67.39;100097.81;5106778;28;19954;-67
2022/10/27 04:18:48;;;;;;;;;;;;;;;2.56;67.21;100097.63;5097083;28;19927;-67
2022/10/27 04:21:14;;;;;;;;;;;;;;;2.56;67.15;100094.91;5088557;28;19928;-66
2022/10/27 04:23:41;;;;;;;;;;;;;;;2.54;67.38;100105.09;5089029;28;19934;-66
2022/10/27 04:26:07;;;;;;;;;;;;;;;2.51;67.24;100100.16;5071034;28;19974;-66
2022/10/27 04:28:33;;;;;;;;;;;;;;;2.45;67.52;100112.63;5085587;28;19928;-66
2022/10/27 04:30:58;;;;;;;;;;;;;;;2.43;67.75;100105.75;5098800;28;19939;-66
2022/10/27 04:33:24;;;;;;;;;;;;;;;2.42;67.50;100104.94;5085734;28;19928;-72
2022/10/27 04:35:50;;;;;;;;;;;;;;;2.39;67.62;100110.75;5086786;28;19975;-66
2022/10/27 04:38:15;;;;;;;;;;;;;;;2.39;67.78;100108.91;5084651;28;19928;-66
2022/10/27 04:40:42;;;;;;;;;;;;;;;2.36;68.03;100111.19;5097481;28;19973;-66
2022/10/27 04:43:08;;;;;;;;;;;;;;;2.41;68.15;100116.75;5110264;27;19927;-66
2022/10/27 04:45:34;;;;;;;;;;;;;;;2.45;68.06;100119.88;5109647;28;19927;-66
2022/10/27 04:48:00;;;;;;;;;;;;;;;2.46;68.21;100124.22;5104675;28;20304;-64
2022/10/27 04:50:26;;;;;;;;;;;;;;;2.53;68.06;100120.47;5101808;28;19928;-65
2022/10/27 04:52:55;;;;;;;;;;;;;;;2.54;68.03;100124.00;5087350;28;20292;-64
2022/10/27 04:55:21;;;;;;;;;;;;;;;2.57;68.32;100125.44;5071569;28;19928;-64
2022/10/27 04:57:49;;;;;;;;;;;;;;;2.61;68.17;100121.28;5086917;28;19997;-64
2022/10/27 05:00:14;;;;;;;;;;;;;;;2.58;68.46;100133.31;5087113;28;19934;-64
2022/10/27 05:02:40;;;;;;;;;;;;;;;2.64;68.67;100121.66;5072133;28;20235;-66
2022/10/27 05:05:06;;;;;;;;;;;;;;;2.70;68.37;100125.38;5085936;28;19973;-66
2022/10/27 05:07:32;;;;;;;;;;;;;;;2.75;68.23;100122.88;5086922;28;19960;-66
2022/10/27 05:09:58;;;;;;;;;;;;;;;2.77;68.06;100122.66;5087994;28;20442;-65
2022/10/27 05:12:24;;;;;;;;;;;;;;;2.76;68.07;100126.41;5088133;28;19928;-66
2022/10/27 05:14:51;;;;;;;;;;;;;;;2.75;68.21;100124.75;5069785;28;19936;-66
2022/10/27 05:17:17;;;;;;;;;;;;;;;2.73;68.29;100126.81;5106185;28;19928;-65
2022/10/27 05:19:43;;;;;;;;;;;;;;;2.71;68.23;100123.53;5106136;28;19942;-65
2022/10/27 05:22:08;;;;;;;;;;;;;;;2.69;68.31;100127.25;5106325;28;19927;-66
2022/10/27 05:24:34;;;;;;;;;;;;;;;2.73;68.22;100126.81;5102866;28;19928;-65
2022/10/27 05:27:00;;;;;;;;;;;;;;;2.68;68.24;100122.06;5084524;28;20357;-66
2022/10/27 05:29:26;;;;;;;;;;;;;;;2.66;68.46;100126.84;5086910;28;19951;-66
2022/10/27 05:31:54;;;;;;;;;;;;;;;2.66;68.54;100127.69;5099171;28;19927;-65
2022/10/27 05:34:20;;;;;;;;;;;;;;;2.67;68.65;100128.50;5095010;28;19934;-65
2022/10/27 05:36:46;;;;;;;;;;;;;;;2.68;68.58;100125.59;5094811;28;20416;-67
2022/10/27 05:39:12;;;;;;;;;;;;;;;2.69;68.56;100134.53;5093117;28;19928;-65
2022/10/27 05:41:38;;;;;;;;;;;;;;;2.73;68.62;100134.94;5092906;28;19934;-65
2022/10/27 05:44:04;;;;;;;;;;;;;;;2.75;68.67;100135.53;5094650;27;19927;-66
2022/10/27 05:46:29;;;;;;;;;;;;;;;2.75;68.68;100125.59;5088966;28;19932;-65
2022/10/27 05:48:56;;;;;;;;;;;;;;;2.76;68.72;100135.34;5083702;28;19928;-65
2022/10/27 05:51:22;;;;;;;;;;;;;;;2.81;68.70;100137.38;5105528;28;20330;-64
2022/10/27 05:53:48;;;;;;;;;;;;;;;2.85;68.69;100144.03;5073282;28;19992;-64
2022/10/27 05:56:14;;;;;;;;;;;;;;;2.87;68.78;100136.53;5103747;28;20030;-64
2022/10/27 05:58:40;;;;;;;;;;;;;;;2.91;68.80;100139.63;5096275;28;19927;-65
2022/10/27 06:01:06;;;;;;;;;;;;;;;2.93;68.90;100143.75;5088298;28;20031;-66
2022/10/27 06:03:31;;;;;;;;;;;;;;;2.99;68.74;100147.47;5085627;28;20296;-65
2022/10/27 06:06:01;;;;;;;;;;;;;;;3.06;68.66;100142.03;5086913;28;20708;-66
2022/10/27 06:08:27;;;;;;;;;;;;;;;3.09;68.50;100145.13;5083434;28;19940;-66
2022/10/27 06:10:53;;;;;;;;;;;;;;;3.09;68.69;100142.44;5087739;28;19950;-66
2022/10/27 06:13:19;;;;;;;;;;;;;;;3.20;68.43;100158.97;5085570;28;19927;-66
2022/10/27 06:15:44;;;;;;;;;;;;;;;3.23;68.29;100155.88;5103314;28;19938;-66
2022/10/27 06:18:12;;;;;;;;;;;;;;;3.22;68.49;100160.44;5110901;28;20345;-66
2022/10/27 06:20:37;;;;;;;;;;;;;;;3.21;68.40;100157.97;5111095;28;19934;-66
2022/10/27 06:23:04;;;;;;;;;;;;;;;3.25;68.51;100161.88;5108499;28;19932;-66
2022/10/27 06:25:30;;;;;;;;;;;;;;;3.35;68.29;100161.41;5107336;28;19972;-66
2022/10/27 06:27:56;;;;;;;;;;;;;;;3.36;68.19;100163.91;5109677;28;19934;-66
2022/10/27 06:30:22;;;;;;;;;;;;;;;3.36;68.41;100163.06;5090431;28;19932;-66
2022/10/27 06:32:48;;;;;;;;;;;;;;;3.40;68.24;100151.59;5105327;28;19928;-66
2022/10/27 06:35:13;;;;;;;;;;;;;;;3.44;68.23;100162.81;5105972;28;19927;-66
2022/10/27 06:37:41;;;;;;;;;;;;;;;3.45;68.27;100159.06;5105647;28;19932;-66
2022/10/27 06:40:09;;;;;;;;;;;;;;;3.50;68.17;100164.63;5091934;28;19971;-65
2022/10/27 06:42:35;;;;;;;;;;;;;;;3.57;67.99;100163.75;5085843;28;19928;-65
2022/10/27 06:45:01;;;;;;;;;;;;;;;3.60;67.99;100168.72;5086419;28;19931;-65
2022/10/27 06:47:28;;;;;;;;;;;;;;;3.58;67.93;100168.94;5069431;28;19934;-65
2022/10/27 06:49:54;;;;;;;;;;;;;;;3.55;68.08;100172.91;5088403;28;20014;-65
2022/10/27 06:52:20;;;;;;;;;;;;;;;3.54;68.25;100163.13;5087219;28;20450;-65
2022/10/27 06:54:45;;;;;;;;;;;;;;;3.51;68.38;100166.28;5097122;28;19932;-66
2022/10/27 06:57:13;;;;;;;;;;;;;;;3.61;68.35;100173.91;5108023;28;20338;-65
2022/10/27 06:59:38;;;;;;;;;;;;;;;3.75;67.97;100168.41;5100860;28;19927;-65
2022/10/27 07:02:04;;;;;;;;;;;;;;;3.86;67.49;100177.66;5099385;28;19928;-65
2022/10/27 07:04:30;;;;;;;;;;;;;;;3.94;67.58;100177.41;5102101;28;19984;-65
2022/10/27 07:06:56;;;;;;;;;;;;;;;4.07;67.22;100177.28;5086527;28;20352;-66
2022/10/27 07:09:21;;;;;;;;;;;;;;;4.12;67.05;100179.31;5098855;28;20398;-65
2022/10/27 07:11:47;;;;;;;;;;;;;;;4.22;66.77;100182.34;5103927;28;20022;-66
2022/10/27 07:14:14;;;;;;;;;;;;;;;4.35;66.38;100184.06;5098423;28;20023;-64
2022/10/27 07:16:40;;;;;;;;;;;;;;;4.40;66.07;100181.53;5106596;28;19945;-66
2022/10/27 07:19:06;;;;;;;;;;;;;;;4.37;66.02;100183.88;5096087;28;20004;-66
2022/10/27 07:21:31;;;;;;;;;;;;;;;4.39;65.99;100190.72;5093299;28;19959;-66
2022/10/27 07:23:57;;;;;;;;;;;;;;;4.35;66.15;100183.25;5091206;28;19928;-61
2022/10/27 07:26:23;;;;;;;;;;;;;;;4.33;66.22;100182.66;5108275;28;19949;-61
2022/10/27 07:28:49;;;;;;;;;;;;;;;4.37;66.21;100183.88;5103817;28;19967;-65
2022/10/27 07:31:16;;;;;;;;;;;;;;;4.40;66.16;100195.09;5097871;28;20386;-65
2022/10/27 07:33:41;;;;;;;;;;;;;;;4.49;65.84;100198.31;5102720;28;20019;-65
2022/10/27 07:36:07;;;;;;;;;;;;;;;4.54;65.92;100200.34;5093881;28;20034;-66
2022/10/27 07:38:33;;;;;;;;;;;;;;;4.62;65.61;100196.53;5099281;28;19935;-65
2022/10/27 07:40:59;;;;;;;;;;;;;;;4.58;65.85;100203.41;5105805;28;20349;-65
2022/10/27 07:43:25;;;;;;;;;;;;;;;4.56;66.01;100208.25;5109934;28;19935;-65
2022/10/27 07:45:51;;;;;;;;;;;;;;;4.53;66.23;100196.00;5103395;28;19950;-65
2022/10/27 07:48:18;;;;;;;;;;;;;;;4.66;66.07;100200.44;5109066;28;20007;-65
2022/10/27 07:50:44;;;;;;;;;;;;;;;4.85;65.71;100201.25;5103876;28;19935;-65
2022/10/27 07:53:10;;;;;;;;;;;;;;;4.97;65.37;100195.91;5100835;28;19932;-65
2022/10/27 07:55:37;;;;;;;;;;;;;;;5.08;65.02;100195.13;5102746;28;19999;-65
2022/10/27 07:58:03;;;;;;;;;;;;;;;5.23;64.73;100199.31;5097368;28;20035;-65
2022/10/27 08:00:30;;;;;;;;;;;;;;;5.44;64.13;100194.44;5108956;28;19928;-65
2022/10/27 08:02:58;;;;;;;;;;;;;;;5.56;63.63;100194.47;5104821;28;20449;-65
2022/10/27 08:05:25;;;;;;;;;;;;;;;5.71;63.20;100189.44;5102457;28;19966;-65
2022/10/27 08:07:50;;;;;;;;;;;;;;;5.84;62.72;100193.81;5100529;28;19957;-65
2022/10/27 08:10:16;;;;;;;;;;;;;;;5.82;62.61;100190.50;5099665;28;19928;-65
2022/10/27 08:12:42;;;;;;;;;;;;;;;5.75;62.46;100193.31;5098792;28;20363;-65
2022/10/27 08:15:09;;;;;;;;;;;;;;;5.85;62.41;100191.94;5097149;28;20034;-65
2022/10/27 08:17:34;;;;;;;;;;;;;;;6.06;62.00;100185.16;5098896;28;19942;-62
2022/10/27 08:20:00;;;;;;;;;;;;;;;6.11;61.63;100190.69;5106075;28;19927;-61
2022/10/27 08:22:27;;;;;;;;;;;;;;;6.13;61.58;100188.56;5099637;28;19928;-62
2022/10/27 08:24:53;;;;;;;;;;;;;;;6.25;61.31;100185.88;5097838;28;20383;-62
2022/10/27 08:27:19;;;;;;;;;;;;;;;6.35;60.99;100191.50;5107769;28;19934;-62
2022/10/27 08:29:45;;;;;;;;;;;;;;;6.46;60.69;100183.59;5101144;28;19938;-62
2022/10/27 08:32:11;;;;;;;;;;;;;;;6.54;60.32;100188.66;5108808;28;21615;-64
2022/10/27 08:34:37;;;;;;;;;;;;;;;6.55;60.00;100187.59;5108113;28;19935;-61
2022/10/27 08:37:03;;;;;;;;;;;;;;;6.49;60.10;100186.69;5108626;28;19927;-60
2022/10/27 08:39:30;;;;;;;;;;;;;;;6.44;60.20;100181.13;5105637;28;20340;-61
2022/10/27 08:42:00;;;;;;;;;;;;;;;6.41;60.09;100186.22;5102394;28;20443;-62
2022/10/27 08:44:26;;;;;;;;;;;;;;;6.43;60.12;100186.81;5106985;28;20007;-63
2022/10/27 08:46:53;;;;;;;;;;;;;;;6.36;60.08;100185.00;5104605;28;19934;-61
2022/10/27 08:49:26;;;;;;;;;;;;;;;6.31;60.29;100195.78;5103315;28;19947;-62
2022/10/27 08:51:54;;;;;;;;;;;;;;;6.22;60.40;100199.91;5103314;28;19928;-62
2022/10/27 08:54:21;;;;;;;;;;;;;;;6.18;60.81;100196.00;5101954;28;20395;-62
2022/10/27 08:56:48;;;;;;;;;;;;;;;6.18;60.93;100190.56;5101709;28;19936;-62
2022/10/27 08:59:17;;;;;;;;;;;;;;;6.23;60.99;100191.53;5104110;28;19932;-62
2022/10/27 09:01:45;;;;;;;;;;;;;;;6.18;60.80;100191.41;5100255;28;19927;-63
2022/10/27 09:04:20;;;;;;;;;;;;;;;6.20;60.90;100194.72;5099396;28;19935;-62
2022/10/27 09:06:51;;;;;;;;;;;;;;;6.31;60.79;100186.78;5105834;28;20399;-61
2022/10/27 09:09:23;;;;;;;;;;;;;;;6.55;60.50;100190.31;5088381;28;20446;-62
2022/10/27 09:11:57;;;;;;;;;;;;;;;6.67;60.11;100201.19;5107097;28;19957;-62
2022/10/27 09:14:29;;;;;;;;;;;;;;;6.66;60.19;100199.53;5108562;28;20022;-62
2022/10/27 09:16:58;;;;;;;;;;;;;;;6.64;60.63;100196.22;5106959;28;19955;-63
2022/10/27 09:19:26;;;;;;;;;;;;;;;6.69;60.46;100196.31;5097355;28;20022;-66
2022/10/27 09:21:52;;;;;;;;;;;;;;;6.86;59.86;100188.22;5103767;28;20376;-65
2022/10/27 09:24:21;;;;;;;;;;;;;;;7.18;59.46;100195.97;5106790;28;19964;-65
2022/10/27 09:26:47;;;;;;;;;;;;;;;7.46;58.35;100188.03;5107661;28;20012;-65
2022/10/27 09:29:17;;;;;;;;;;;;;;;7.50;58.20;100189.19;5101350;28;19985;-65
2022/10/27 09:31:46;;;;;;;;;;;;;;;7.47;58.36;100189.69;5100449;28;20018;-62
2022/10/27 09:34:15;;;;;;;;;;;;;;;7.53;58.08;100196.84;5105947;28;19928;-62
2022/10/27 09:36:41;;;;;;;;;;;;;;;7.52;58.04;100193.31;5107342;28;20410;-65
2022/10/27 09:39:09;;;;;;;;;;;;;;;7.48;57.95;100192.13;5104929;28;20215;-66
2022/10/27 09:41:35;;;;;;;;;;;;;;;7.43;58.14;100192.06;5106935;28;20030;-65
2022/10/27 09:44:01;;;;;;;;;;;;;;;7.32;58.26;100196.47;5108805;28;19928;-65
2022/10/27 09:46:29;;;;;;;;;;;;;;;7.18;58.91;100192.41;5109482;28;19927;-64
2022/10/27 09:48:57;;;;;;;;;;;;;;;7.17;59.19;100193.47;5107357;28;19927;-66
2022/10/27 09:51:24;;;;;;;;;;;;;;;7.30;59.02;100198.63;5107317;28;19985;-65
2022/10/27 09:53:51;;;;;;;;;;;;;;;7.49;58.53;100176.66;5083744;28;19928;-65
2022/10/27 09:56:23;;;;;;;;;;;;;;;7.85;57.60;100196.31;5095910;28;19928;-65
2022/10/27 09:58:55;;;;;;;;;;;;;;;7.74;57.84;100198.03;5105106;28;20026;-66
2022/10/27 10:01:22;;;;;;;;;;;;;;;7.66;57.95;100198.44;5084159;28;20395;-66
2022/10/27 10:04:00;;;;;;;;;;;;;;;7.50;58.36;100210.94;5104249;28;19981;-65
2022/10/27 10:06:29;;;;;;;;;;;;;;;7.38;58.72;100205.56;5106405;28;19955;-65
2022/10/27 10:09:13;;;;;;;;;;;;;;;7.29;59.17;100207.84;5102492;28;19957;-65
2022/10/27 10:11:39;;;;;;;;;;;;;;;7.20;59.14;100209.31;5112480;27;20410;-64
2022/10/27 10:14:18;;;;;;;;;;;;;;;7.04;59.65;100210.91;5102085;28;19985;-65
2022/10/27 10:16:44;;;;;;;;;;;;;;;6.87;60.02;100210.81;5101277;28;19928;-65
2022/10/27 10:19:14;;;;;;;;;;;;;;;6.76;60.34;100212.50;5102652;28;20399;-62
2022/10/27 10:21:45;;;;;;;;;;;;;;;6.72;60.37;100214.06;5092669;28;19935;-62
2022/10/27 10:24:15;;;;;;;;;;;;;;;6.70;60.40;100210.72;5096406;28;20019;-62
2022/10/27 10:26:44;;;;;;;;;;;;;;;6.77;60.24;100216.88;5096538;28;20391;-61
2022/10/27 10:29:15;;;;;;;;;;;;;;;6.70;60.47;100219.72;5104792;28;20026;-61
2022/10/27 10:31:41;;;;;;;;;;;;;;;6.63;60.68;100217.13;5102106;28;19928;-61
2022/10/27 10:34:26;;;;;;;;;;;;;;;6.67;60.79;100223.72;5102217;28;19935;-62
2022/10/27 10:36:54;;;;;;;;;;;;;;;6.91;60.54;100229.13;5099731;28;19927;-65
2022/10/27 10:39:21;;;;;;;;;;;;;;;7.11;60.00;100225.19;5076334;28;20472;-65
2022/10/27 10:42:08;;;;;;;;;;;;;;;7.14;59.61;100223.88;5101312;28;20414;-65
2022/10/27 10:44:34;;;;;;;;;;;;;;;7.12;59.86;100226.00;5097892;28;19928;-62
2022/10/27 10:47:00;;;;;;;;;;;;;;;7.17;59.86;100226.91;5103752;28;19927;-62
2022/10/27 10:49:28;;;;;;;;;;;;;;;7.21;59.71;100225.38;5100334;28;19959;-63
2022/10/27 10:51:56;;;;;;;;;;;;;;;7.27;59.69;100225.47;5101922;28;20353;-62
2022/10/27 10:54:24;;;;;;;;;;;;;;;7.34;59.54;100226.19;5104336;28;20022;-61
2022/10/27 10:56:51;;;;;;;;;;;;;;;7.48;59.15;100223.97;5103331;28;19989;-62
2022/10/27 10:59:19;;;;;;;;;;;;;;;7.55;58.94;100223.81;5108603;28;19942;-62
2022/10/27 11:01:47;;;;;;;;;;;;;;;7.48;59.25;100232.13;5106682;28;20026;-62
2022/10/27 11:04:16;;;;;;;;;;;;;;;7.45;59.22;100229.91;5109291;28;20016;-62
2022/10/27 11:06:56;;;;;;;;;;;;;;;7.47;59.33;100225.84;5108362;28;19931;-63
2022/10/27 11:09:24;;;;;;;;;;;;;;;7.58;59.11;100232.34;5109844;27;19928;-62
2022/10/27 11:11:50;;;;;;;;;;;;;;;7.51;59.02;100234.38;5108311;28;20000;-61
2022/10/27 11:14:17;;;;;;;;;;;;;;;7.35;59.14;100233.25;5109034;28;20214;-63
2022/10/27 11:16:48;;;;;;;;;;;;;;;7.11;59.67;100233.34;5108765;28;20032;-62
2022/10/27 11:19:17;;;;;;;;;;;;;;;7.03;60.36;100233.72;5106828;28;19967;-63
2022/10/27 11:21:49;;;;;;;;;;;;;;;7.07;60.32;100229.44;5107813;28;19980;-62
2022/10/27 11:24:17;;;;;;;;;;;;;;;7.24;59.99;100230.34;5106207;28;19928;-62
2022/10/27 11:26:49;;;;;;;;;;;;;;;7.31;59.56;100241.06;5106293;28;19949;-61
2022/10/27 11:29:17;;;;;;;;;;;;;;;7.32;59.56;100241.88;5109905;28;20386;-65
2022/10/27 11:31:48;;;;;;;;;;;;;;;7.28;59.60;100235.28;5104411;28;19957;-65
2022/10/27 11:34:17;;;;;;;;;;;;;;;7.36;59.48;100233.00;5101172;28;19984;-65
2022/10/27 11:36:46;;;;;;;;;;;;;;;7.42;59.33;100236.66;5104766;28;20401;-65
2022/10/27 11:39:17;;;;;;;;;;;;;;;7.56;59.04;100234.44;5104382;28;20421;-65
2022/10/27 11:41:47;;;;;;;;;;;;;;;7.74;58.48;100236.16;5107530;28;19969;-65
2022/10/27 11:44:19;;;;;;;;;;;;;;;7.88;58.15;100235.84;5104352;28;19971;-65
2022/10/27 11:46:50;;;;;;;;;;;;;;;7.98;57.84;100230.56;5106103;28;20377;-64
2022/10/27 11:49:19;;;;;;;;;;;;;;;7.94;57.75;100232.13;5105882;27;19928;-65
2022/10/27 11:51:48;;;;;;;;;;;;;;;7.97;57.66;100241.69;5077754;28;20303;-64
2022/10/27 11:54:14;;;;;;;;;;;;;;;7.82;57.66;100234.09;5098277;28;19928;-65
2022/10/27 11:56:49;;;;;;;;;;;;;;;7.70;58.13;100232.28;5102757;28;19928;-65
2022/10/27 11:59:21;;;;;;;;;;;;;;;7.66;58.46;100225.66;5069243;28;20296;-65
2022/10/27 12:01:57;;;;;;;;;;;;;;;7.59;58.51;100241.31;5100883;28;19928;-65
2022/10/27 12:04:32;;;;;;;;;;;;;;;7.40;58.62;100208.88;5101414;28;19934;-65
2022/10/27 12:07:03;;;;;;;;;;;;;;;7.72;58.28;100232.00;5103144;28;19980;-65
2022/10/27 12:09:35;;;;;;;;;;;;;;;7.80;58.02;100240.63;5089016;28;20016;-61
2022/10/27 12:12:06;;;;;;;;;;;;;;;7.86;57.96;100236.06;5103863;28;19936;-62
2022/10/27 12:14:38;;;;;;;;;;;;;;;7.73;58.10;100234.50;5080315;28;19934;-62
2022/10/27 12:17:06;;;;;;;;;;;;;;;7.48;58.93;100243.03;5104173;28;19927;-62
2022/10/27 12:19:34;;;;;;;;;;;;;;;7.33;59.37;100248.97;5103699;28;19950;-62
2022/10/27 12:22:04;;;;;;;;;;;;;;;7.15;59.99;100241.84;5099128;28;19928;-62
2022/10/27 12:24:35;;;;;;;;;;;;;;;6.83;61.03;100248.53;5106561;28;20418;-62
2022/10/27 12:27:05;;;;;;;;;;;;;;;6.72;61.62;100257.53;5106332;28;19936;-62
2022/10/27 12:29:33;;;;;;;;;;;;;;;6.51;62.39;100259.78;5104973;28;19982;-61
2022/10/27 12:32:05;;;;;;;;;;;;;;;6.40;62.90;100266.88;5084790;28;20008;-65
2022/10/27 12:34:36;;;;;;;;;;;;;;;6.37;63.22;100265.44;5102627;28;20421;-65
2022/10/27 12:37:04;;;;;;;;;;;;;;;6.25;63.21;100242.91;5102668;28;19934;-65
2022/10/27 12:39:35;;;;;;;;;;;;;;;6.38;63.51;100264.38;4393113;27;10000592;-60
2022/10/27 12:42:05;;;;;;;;;;;;;;;6.37;63.68;100262.72;5101115;28;19932;-60
2022/10/27 12:44:37;;;;;;;;;;;;;;;6.16;64.14;100272.25;5094609;28;20337;-60
2022/10/27 12:47:12;;;;;;;;;;;;;;;5.70;65.20;100252.91;5102862;28;19980;-62